createdAt,value
2017-04-04T00:00:45.911Z,5.12
2017-04-04T00:02:07.507Z,5.09
2017-04-04T00:03:30.007Z,5.06
2017-04-04T00:04:51.846Z,5.04
2017-04-04T00:06:13.655Z,5.02
2017-04-04T00:07:35.472Z,4.97
2017-04-04T00:08:57.266Z,4.86
2017-04-04T00:10:19.089Z,4.82
2017-04-04T00:11:40.905Z,4.82
2017-04-04T00:13:02.400Z,4.78
2017-04-04T00:14:24.835Z,4.75
2017-04-04T00:15:46.661Z,4.84
2017-04-04T00:17:08.275Z,4.7
2017-04-04T00:18:29.770Z,4.8
2017-04-04T00:19:51.583Z,4.84
2017-04-04T00:21:13.436Z,4.84
2017-04-04T00:22:35.890Z,4.78
2017-04-04T00:23:58.386Z,4.77
2017-04-04T00:25:20.206Z,4.78
2017-04-04T00:26:41.484Z,4.66
2017-04-04T00:28:03.925Z,4.72
2017-04-04T00:29:25.784Z,4.75
2017-04-04T00:30:48.201Z,4.78
2017-04-04T00:32:09.696Z,4.77
2017-04-04T00:33:31.512Z,4.72
2017-04-04T00:34:53.470Z,4.82
2017-04-04T00:36:15.356Z,4.7
2017-04-04T00:37:36.583Z,4.62
2017-04-04T00:38:59.105Z,4.58
2017-04-04T00:40:21.642Z,4.54
2017-04-04T00:41:43.743Z,4.51
2017-04-04T00:43:05.258Z,4.54
2017-04-04T00:44:27.409Z,4.59
2017-04-04T00:45:49.532Z,4.63
2017-04-04T00:47:12.326Z,4.59
2017-04-04T00:48:34.146Z,4.65
2017-04-04T00:49:55.736Z,4.6
2017-04-04T00:51:17.872Z,4.62
2017-04-04T00:52:39.723Z,4.65
2017-04-04T00:54:01.538Z,4.67
2017-04-04T00:55:23.438Z,4.66
2017-04-04T00:56:45.566Z,4.59
2017-04-04T00:58:07.826Z,4.66
2017-04-04T00:59:30.095Z,4.59
2017-04-04T01:00:51.923Z,4.59
2017-04-04T01:02:13.744Z,4.51
2017-04-04T01:03:36.534Z,4.52
2017-04-04T01:04:58.345Z,4.5
2017-04-04T01:06:20.185Z,4.47
2017-04-04T01:07:41.363Z,4.42
2017-04-04T01:09:03.523Z,4.4
2017-04-04T01:10:26.117Z,4.33
2017-04-04T01:11:48.402Z,4.33
2017-04-04T01:13:10.243Z,4.23
2017-04-04T01:14:32.355Z,4.29
2017-04-04T01:15:54.154Z,4.23
2017-04-04T01:17:16.035Z,4.33
2017-04-04T01:18:38.149Z,4.36
2017-04-04T01:20:00.754Z,4.37
2017-04-04T01:21:22.446Z,4.33
2017-04-04T01:22:43.954Z,4.4
2017-04-04T01:24:05.788Z,4.33
2017-04-04T01:25:28.581Z,4.32
2017-04-04T01:26:51.022Z,4.34
2017-04-04T01:28:12.231Z,4.32
2017-04-04T01:29:34.383Z,4.3
2017-04-04T01:30:57.163Z,4.3
2017-04-04T01:32:19.671Z,4.24
2017-04-04T01:33:41.815Z,4.11
2017-04-04T01:35:03.954Z,4.12
2017-04-04T01:36:26.122Z,4.16
2017-04-04T01:37:47.476Z,4.09
2017-04-04T01:39:10.003Z,4.2
2017-04-04T01:40:31.594Z,4.18
2017-04-04T01:41:54.048Z,4.15
2017-04-04T01:43:16.195Z,4.12
2017-04-04T01:44:38.327Z,4.14
2017-04-04T01:46:00.793Z,4.12
2017-04-04T01:47:23.526Z,4.11
2017-04-04T01:48:46.096Z,4.06
2017-04-04T01:50:07.915Z,4.15
2017-04-04T01:51:29.434Z,4.12
2017-04-04T01:52:51.535Z,4.2
2017-04-04T01:54:13.470Z,4.12
2017-04-04T01:55:35.606Z,4.08
2017-04-04T01:56:58.052Z,4.04
2017-04-04T01:58:20.515Z,4.04
2017-04-04T01:59:42.324Z,4.08
2017-04-04T02:01:04.454Z,4.08
2017-04-04T02:02:26.604Z,4.06
2017-04-04T02:03:48.420Z,4.11
2017-04-04T02:05:10.654Z,4.05
2017-04-04T02:06:32.786Z,4.15
2017-04-04T02:07:54.673Z,4.11
2017-04-04T02:09:17.031Z,4.18
2017-04-04T02:10:38.846Z,4.16
2017-04-04T02:12:00.656Z,4.12
2017-04-04T02:13:22.783Z,4.22
2017-04-04T02:14:45.086Z,4.15
2017-04-04T02:16:07.202Z,4.22
2017-04-04T02:17:28.381Z,4.14
2017-04-04T02:18:49.884Z,4.09
2017-04-04T02:20:12.443Z,4.08
2017-04-04T02:21:34.295Z,4.06
2017-04-04T02:22:56.210Z,4.08
2017-04-04T02:24:18.342Z,4.02
2017-04-04T02:25:40.502Z,3.98
2017-04-04T02:27:02.307Z,4
2017-04-04T02:28:23.903Z,3.96
2017-04-04T02:29:45.825Z,3.94
2017-04-04T02:31:07.756Z,3.9
2017-04-04T02:32:30.208Z,3.93
2017-04-04T02:33:52.656Z,3.84
2017-04-04T02:35:14.157Z,3.88
2017-04-04T02:36:35.976Z,3.83
2017-04-04T02:37:57.484Z,3.84
2017-04-04T02:39:19.285Z,3.84
2017-04-04T02:40:40.796Z,3.8
2017-04-04T02:42:03.295Z,3.78
2017-04-04T02:43:24.815Z,3.73
2017-04-04T02:44:46.683Z,3.78
2017-04-04T02:46:08.503Z,3.68
2017-04-04T02:49:01.156Z,3.72
2017-04-04T02:50:23.595Z,3.54
2017-04-04T02:51:45.813Z,3.58
2017-04-04T02:53:07.622Z,3.39
2017-04-04T02:54:29.890Z,3.43
2017-04-04T02:55:52.063Z,3.33
2017-04-04T02:57:13.863Z,3.35
2017-04-04T02:58:36.103Z,3.47
2017-04-04T02:59:58.245Z,3.4
2017-04-04T03:01:19.748Z,3.42
2017-04-04T03:02:41.253Z,3.43
2017-04-04T03:04:03.455Z,3.42
2017-04-04T03:05:25.300Z,3.47
2017-04-04T03:06:47.234Z,3.47
2017-04-04T03:08:08.723Z,3.5
2017-04-04T03:09:30.536Z,3.36
2017-04-04T03:10:52.947Z,3.5
2017-04-04T03:12:15.065Z,3.47
2017-04-04T03:13:36.903Z,3.45
2017-04-04T03:14:59.036Z,3.4
2017-04-04T03:16:20.835Z,3.5
2017-04-04T03:17:42.979Z,3.48
2017-04-04T03:19:05.013Z,3.43
2017-04-04T03:20:26.299Z,3.42
2017-04-04T03:21:48.494Z,3.45
2017-04-04T03:23:10.612Z,3.4
2017-04-04T03:24:31.783Z,3.42
2017-04-04T03:25:53.724Z,3.47
2017-04-04T03:27:15.823Z,3.4
2017-04-04T03:28:37.675Z,3.42
2017-04-04T03:29:59.610Z,3.31
2017-04-04T03:31:21.756Z,3.29
2017-04-04T03:32:43.614Z,3.33
2017-04-04T03:34:05.422Z,3.31
2017-04-04T03:35:26.906Z,3.31
2017-04-04T03:36:49.017Z,3.29
2017-04-04T03:38:10.826Z,3.32
2017-04-04T03:39:32.352Z,3.33
2017-04-04T03:40:53.882Z,3.18
2017-04-04T03:42:16.050Z,3.28
2017-04-04T03:43:38.242Z,3.23
2017-04-04T03:45:00.385Z,3.28
2017-04-04T03:46:22.198Z,3.23
2017-04-04T03:47:44.007Z,3.15
2017-04-04T03:49:05.595Z,3.21
2017-04-04T03:50:27.422Z,3.2
2017-04-04T03:51:49.833Z,3.17
2017-04-04T03:53:11.333Z,3.17
2017-04-04T03:54:33.775Z,3.13
2017-04-04T03:55:56.225Z,3.14
2017-04-04T03:57:17.919Z,3.08
2017-04-04T03:58:39.257Z,3.11
2017-04-04T04:00:03.229Z,3.05
2017-04-04T04:01:24.734Z,2.99
2017-04-04T04:02:46.580Z,3.11
2017-04-04T04:04:08.716Z,3.14
2017-04-04T04:05:30.944Z,3.03
2017-04-04T04:06:52.452Z,3.1
2017-04-04T04:08:14.273Z,3
2017-04-04T04:09:36.395Z,3.13
2017-04-04T04:10:58.836Z,3.02
2017-04-04T04:12:21.306Z,3.05
2017-04-04T04:13:43.124Z,3.15
2017-04-04T04:15:05.426Z,3.15
2017-04-04T04:16:27.158Z,3.1
2017-04-04T04:17:49.606Z,3.15
2017-04-04T04:19:11.484Z,3.17
2017-04-04T04:20:33.188Z,3.06
2017-04-04T04:21:54.987Z,3.03
2017-04-04T04:23:17.453Z,3.06
2017-04-04T04:24:39.670Z,2.99
2017-04-04T04:26:01.191Z,3.11
2017-04-04T04:27:23.146Z,3.02
2017-04-04T04:28:44.641Z,3
2017-04-04T04:30:06.135Z,3.11
2017-04-04T04:31:28.256Z,3.06
2017-04-04T04:32:50.465Z,3.17
2017-04-04T04:34:12.295Z,3.14
2017-04-04T04:35:34.746Z,3.1
2017-04-04T04:36:57.187Z,3.15
2017-04-04T04:38:20.115Z,3.02
2017-04-04T04:39:42.371Z,3
2017-04-04T04:41:04.241Z,3.06
2017-04-04T04:42:25.433Z,3.05
2017-04-04T04:43:47.927Z,2.97
2017-04-04T04:45:10.122Z,2.96
2017-04-04T04:46:32.287Z,2.99
2017-04-04T04:47:54.409Z,2.93
2017-04-04T04:49:16.237Z,3.1
2017-04-04T04:50:38.710Z,2.96
2017-04-04T04:52:00.536Z,3.03
2017-04-04T04:53:22.725Z,3.02
2017-04-04T04:54:44.784Z,3.08
2017-04-04T04:56:07.024Z,3.02
2017-04-04T04:57:29.136Z,3.14
2017-04-04T04:58:51.314Z,3.18
2017-04-04T05:00:12.866Z,3.17
2017-04-04T05:01:34.852Z,3.2
2017-04-04T05:02:56.674Z,3.11
2017-04-04T05:04:18.219Z,3.23
2017-04-04T05:05:40.017Z,3.2
2017-04-04T05:07:02.211Z,3.23
2017-04-04T05:08:23.397Z,3.32
2017-04-04T05:09:45.544Z,3.36
2017-04-04T05:11:08.055Z,3.28
2017-04-04T05:12:30.187Z,3.29
2017-04-04T05:13:52.373Z,3.42
2017-04-04T05:15:14.527Z,3.39
2017-04-04T05:16:36.970Z,3.47
2017-04-04T05:17:59.247Z,3.43
2017-04-04T05:19:21.089Z,3.5
2017-04-04T05:20:42.260Z,3.47
2017-04-04T05:22:04.093Z,3.39
2017-04-04T05:23:26.034Z,3.54
2017-04-04T05:24:48.571Z,3.55
2017-04-04T05:26:10.377Z,3.51
2017-04-04T05:27:32.813Z,3.58
2017-04-04T05:28:55.273Z,3.62
2017-04-04T05:30:17.424Z,3.73
2017-04-04T05:31:39.247Z,3.8
2017-04-04T05:33:01.796Z,3.79
2017-04-04T05:34:23.937Z,3.84
2017-04-04T05:35:46.106Z,3.9
2017-04-04T05:37:08.296Z,3.97
2017-04-04T05:38:30.362Z,3.93
2017-04-04T05:39:52.196Z,4.08
2017-04-04T05:41:14.338Z,4.06
2017-04-04T05:42:36.458Z,4.14
2017-04-04T05:43:58.555Z,4.12
2017-04-04T05:45:20.792Z,4.24
2017-04-04T05:46:43.270Z,4.32
2017-04-04T05:48:04.258Z,4.36
2017-04-04T05:49:26.652Z,4.48
2017-04-04T05:50:48.467Z,4.6
2017-04-04T05:52:10.635Z,4.92
2017-04-04T05:53:32.460Z,5.76
2017-04-04T05:54:54.557Z,6.92
2017-04-04T05:56:17.016Z,8.1
2017-04-04T05:57:38.847Z,8.87
2017-04-04T05:59:00.660Z,9.46
2017-04-04T06:00:22.667Z,10.07
2017-04-04T06:01:44.817Z,10.7
2017-04-04T06:03:06.407Z,11.04
2017-04-04T06:04:28.357Z,11.64
2017-04-04T06:05:50.776Z,11.78
2017-04-04T06:07:12.609Z,12.23
2017-04-04T06:08:34.799Z,12.85
2017-04-04T06:09:56.928Z,13.66
2017-04-04T06:11:19.064Z,14.29
2017-04-04T06:12:41.198Z,14.7
2017-04-04T06:14:03.348Z,14.99
2017-04-04T06:15:25.574Z,15.01
2017-04-04T06:16:47.686Z,15.07
2017-04-04T06:18:09.568Z,15.27
2017-04-04T06:19:31.400Z,15.68
2017-04-04T06:20:53.221Z,15.65
2017-04-04T06:22:15.328Z,15.36
2017-04-04T06:23:37.847Z,15.5
2017-04-04T06:24:59.730Z,15.23
2017-04-04T06:26:21.987Z,15.32
2017-04-04T06:27:44.066Z,15.14
2017-04-04T06:29:06.236Z,15.07
2017-04-04T06:30:28.494Z,15.49
2017-04-04T06:31:50.424Z,16.08
2017-04-04T06:33:13.145Z,16.58
2017-04-04T06:34:35.272Z,17.36
2017-04-04T06:35:57.096Z,17.68
2017-04-04T06:37:18.656Z,17.82
2017-04-04T06:38:40.407Z,17.9
2017-04-04T06:40:02.868Z,18.15
2017-04-04T06:41:24.798Z,18.5
2017-04-04T06:42:47.350Z,18.9
2017-04-04T06:44:09.742Z,18.58
2017-04-04T06:45:31.236Z,19.22
2017-04-04T06:46:52.762Z,19.39
2017-04-04T06:48:14.898Z,19.87
2017-04-04T06:49:38.877Z,20.33
2017-04-04T06:51:00.696Z,20.13
2017-04-04T06:52:22.537Z,19.99
2017-04-04T06:53:44.703Z,20.06
2017-04-04T06:55:07.526Z,20.21
2017-04-04T06:56:29.664Z,20.11
2017-04-04T06:57:51.163Z,20.21
2017-04-04T06:59:13.361Z,20.21
2017-04-04T07:00:35.306Z,20.66
2017-04-04T07:01:57.488Z,20.59
2017-04-04T07:03:19.625Z,20.41
2017-04-04T07:04:41.465Z,20.31
2017-04-04T07:06:03.595Z,20.11
2017-04-04T07:07:25.423Z,19.83
2017-04-04T07:08:47.900Z,19.86
2017-04-04T07:10:10.051Z,20.32
2017-04-04T07:11:31.558Z,20.13
2017-04-04T07:12:53.399Z,19.96
2017-04-04T07:14:15.236Z,20.55
2017-04-04T07:15:37.299Z,20.1
2017-04-04T07:16:59.178Z,20.33
2017-04-04T07:18:21.333Z,21.06
2017-04-04T07:19:43.816Z,20.97
2017-04-04T07:21:05.637Z,21.27
2017-04-04T07:22:28.053Z,21.77
2017-04-04T07:23:50.226Z,21.83
2017-04-04T07:25:12.423Z,21.29
2017-04-04T07:26:34.302Z,20.72
2017-04-04T07:27:56.554Z,20.76
2017-04-04T07:29:18.432Z,20.32
2017-04-04T07:30:40.580Z,19.92
2017-04-04T07:32:02.735Z,18.82
2017-04-04T07:33:25.147Z,18.12
2017-04-04T07:34:47.373Z,18.05
2017-04-04T07:36:09.927Z,18.37
2017-04-04T07:37:31.837Z,18.21
2017-04-04T07:38:53.106Z,18.63
2017-04-04T07:40:15.730Z,19.08
2017-04-04T07:41:37.671Z,19.31
2017-04-04T07:42:59.515Z,19.71
2017-04-04T07:44:22.211Z,20.11
2017-04-04T07:45:44.496Z,19.61
2017-04-04T07:47:06.675Z,18.88
2017-04-04T07:48:29.205Z,17.55
2017-04-04T07:49:52.139Z,16.58
2017-04-04T07:51:14.327Z,15.56
2017-04-04T07:52:36.805Z,14.35
2017-04-04T07:53:58.654Z,13.71
2017-04-04T07:55:21.096Z,13.41
2017-04-04T07:56:42.978Z,13.1
2017-04-04T07:58:04.640Z,12.96
2017-04-04T07:59:25.857Z,12.83
2017-04-04T08:00:47.955Z,12.71
2017-04-04T08:02:09.844Z,12.56
2017-04-04T08:03:32.038Z,12.45
2017-04-04T08:04:53.869Z,12.35
2017-04-04T08:06:16.032Z,12.29
2017-04-04T08:07:37.555Z,12.07
2017-04-04T08:08:59.387Z,11.99
2017-04-04T08:10:21.236Z,11.98
2017-04-04T08:11:43.018Z,11.98
2017-04-04T08:13:05.547Z,12.14
2017-04-04T08:14:28.007Z,12.23
2017-04-04T08:15:49.813Z,12.27
2017-04-04T08:17:11.709Z,12.2
2017-04-04T08:18:33.611Z,12.14
2017-04-04T08:19:55.125Z,12.27
2017-04-04T08:21:17.273Z,12.32
2017-04-04T08:22:38.783Z,12.49
2017-04-04T08:24:00.606Z,12.31
2017-04-04T08:25:22.789Z,12.34
2017-04-04T08:26:44.614Z,12.32
2017-04-04T08:28:07.064Z,12.32
2017-04-04T08:29:29.217Z,12.5
2017-04-04T08:30:51.745Z,13.05
2017-04-04T08:32:13.872Z,13.57
2017-04-04T08:33:36.206Z,14.15
2017-04-04T08:34:58.677Z,14.51
2017-04-04T08:36:20.805Z,14.32
2017-04-04T08:37:42.970Z,14.24
2017-04-04T08:39:04.800Z,13.45
2017-04-04T08:40:26.644Z,12.9
2017-04-04T08:41:49.187Z,12.6
2017-04-04T08:43:10.742Z,12.6
2017-04-04T08:44:32.994Z,12.79
2017-04-04T08:45:55.137Z,12.93
2017-04-04T08:47:16.977Z,13.36
2017-04-04T08:48:38.811Z,13.6
2017-04-04T08:50:00.906Z,14.07
2017-04-04T08:51:23.080Z,14.25
2017-04-04T08:52:45.547Z,14.54
2017-04-04T08:54:07.074Z,14.18
2017-04-04T08:55:29.705Z,14.24
2017-04-04T08:56:52.319Z,14.24
2017-04-04T08:58:13.876Z,14.27
2017-04-04T08:59:36.028Z,14.35
2017-04-04T09:00:58.476Z,14.51
2017-04-04T09:02:20.334Z,14.68
2017-04-04T09:03:41.851Z,14.83
2017-04-04T09:05:03.376Z,14.99
2017-04-04T09:06:25.236Z,15.11
2017-04-04T09:07:47.506Z,15.27
2017-04-04T09:09:09.637Z,15.28
2017-04-04T09:10:32.216Z,15.41
2017-04-04T09:11:54.599Z,15.54
2017-04-04T09:13:17.065Z,15.39
2017-04-04T09:14:38.655Z,15.38
2017-04-04T09:16:00.166Z,15.16
2017-04-04T09:17:22.611Z,14.96
2017-04-04T09:18:44.475Z,15.01
2017-04-04T09:20:05.715Z,15.06
2017-04-04T09:21:27.204Z,15.23
2017-04-04T09:22:49.023Z,15.43
2017-04-04T09:24:10.533Z,15.46
2017-04-04T09:25:31.793Z,15.62
2017-04-04T09:26:53.616Z,15.65
2017-04-04T09:28:15.753Z,15.53
2017-04-04T09:29:37.257Z,15.2
2017-04-04T09:30:59.414Z,15.07
2017-04-04T09:32:21.264Z,14.96
2017-04-04T09:33:43.708Z,14.99
2017-04-04T09:35:05.930Z,15.01
2017-04-04T09:36:28.201Z,15.03
2017-04-04T09:37:50.363Z,15.01
2017-04-04T09:39:12.807Z,15.16
2017-04-04T09:40:34.930Z,15.35
2017-04-04T09:41:56.767Z,15.43
2017-04-04T09:43:18.596Z,15.17
2017-04-04T09:44:40.755Z,14.86
2017-04-04T09:46:02.608Z,14.65
2017-04-04T09:47:24.752Z,14.47
2017-04-04T09:48:46.576Z,14.4
2017-04-04T09:50:08.725Z,14.18
2017-04-04T09:51:30.245Z,14.02
2017-04-04T09:52:51.893Z,13.96
2017-04-04T09:54:13.489Z,13.91
2017-04-04T09:55:35.406Z,14.03
2017-04-04T09:56:57.271Z,14.18
2017-04-04T09:58:19.096Z,14.22
2017-04-04T09:59:41.270Z,14.15
2017-04-04T10:01:03.777Z,14.04
2017-04-04T10:02:26.035Z,14.12
2017-04-04T10:03:48.526Z,14.2
2017-04-04T10:05:10.058Z,14.28
2017-04-04T10:06:32.587Z,14.18
2017-04-04T10:07:54.398Z,14.27
2017-04-04T10:09:16.215Z,14.5
2017-04-04T10:10:38.356Z,14.65
2017-04-04T10:12:00.649Z,14.94
2017-04-04T10:13:22.166Z,15.17
2017-04-04T10:14:44.406Z,15.16
2017-04-04T10:16:06.604Z,14.98
2017-04-04T10:17:28.405Z,14.89
2017-04-04T10:18:50.228Z,14.78
2017-04-04T10:20:12.049Z,14.7
2017-04-04T10:21:33.567Z,14.88
2017-04-04T10:22:56.086Z,14.72
2017-04-04T10:24:17.935Z,14.57
2017-04-04T10:25:39.241Z,14.43
2017-04-04T10:27:01.690Z,14.4
2017-04-04T10:28:24.134Z,14.24
2017-04-04T10:29:45.992Z,14.17
2017-04-04T10:31:07.185Z,14.21
2017-04-04T10:32:29.328Z,14.21
2017-04-04T10:33:51.521Z,14.28
2017-04-04T10:35:13.064Z,14.43
2017-04-04T10:36:35.192Z,14.51
2017-04-04T10:37:57.004Z,14.5
2017-04-04T10:39:19.492Z,14.46
2017-04-04T10:40:41.655Z,14.21
2017-04-04T10:42:03.813Z,14.37
2017-04-04T10:43:26.415Z,14.4
2017-04-04T10:44:49.175Z,14.57
2017-04-04T10:46:11.336Z,14.54
2017-04-04T10:47:33.151Z,14.64
2017-04-04T10:48:54.975Z,14.24
2017-04-04T10:50:17.805Z,14.35
2017-04-04T10:51:39.744Z,14.57
2017-04-04T10:53:02.190Z,14.42
2017-04-04T10:54:24.017Z,14.1
2017-04-04T10:55:46.807Z,13.91
2017-04-04T10:57:09.030Z,13.78
2017-04-04T10:58:30.565Z,13.62
2017-04-04T10:59:52.457Z,13.54
2017-04-04T11:01:15.156Z,13.38
2017-04-04T11:02:37.344Z,13.57
2017-04-04T11:03:59.154Z,13.45
2017-04-04T11:05:20.696Z,13.75
2017-04-04T11:06:42.823Z,13.92
2017-04-04T11:08:04.678Z,14.21
2017-04-04T11:09:26.821Z,14.42
2017-04-04T11:10:48.643Z,14.62
2017-04-04T11:12:10.885Z,14.84
2017-04-04T11:13:33.414Z,15.07
2017-04-04T11:14:56.205Z,15.07
2017-04-04T11:16:17.711Z,15.13
2017-04-04T11:17:39.824Z,15.14
2017-04-04T11:19:02.074Z,15.07
2017-04-04T11:20:24.294Z,15.17
2017-04-04T11:21:46.795Z,15.13
2017-04-04T11:23:08.974Z,15.21
2017-04-04T11:24:31.124Z,15.07
2017-04-04T11:25:52.965Z,14.78
2017-04-04T11:27:15.197Z,14.62
2017-04-04T11:28:37.300Z,14.46
2017-04-04T11:29:59.455Z,14.32
2017-04-04T11:31:21.936Z,14.33
2017-04-04T11:32:43.743Z,14.24
2017-04-04T11:34:06.377Z,14.15
2017-04-04T11:35:28.617Z,14.21
2017-04-04T11:36:50.772Z,14.15
2017-04-04T11:38:12.595Z,14.2
2017-04-04T11:39:34.451Z,14.24
2017-04-04T11:40:56.271Z,14.37
2017-04-04T11:42:18.409Z,14.51
2017-04-04T11:43:39.941Z,14.65
2017-04-04T11:45:02.086Z,14.7
2017-04-04T11:46:24.256Z,14.83
2017-04-04T11:47:46.415Z,14.88
2017-04-04T11:49:08.566Z,14.88
2017-04-04T11:50:31.373Z,14.8
2017-04-04T11:51:53.213Z,14.69
2017-04-04T11:53:14.444Z,14.69
2017-04-04T11:54:36.703Z,14.89
2017-04-04T11:55:58.575Z,14.78
2017-04-04T11:57:20.743Z,14.69
2017-04-04T11:58:42.591Z,14.42
2017-04-04T12:00:04.796Z,14.18
2017-04-04T12:01:26.359Z,14.18
2017-04-04T12:02:48.516Z,14.02
2017-04-04T12:04:10.795Z,14
2017-04-04T12:05:32.645Z,14.17
2017-04-04T12:06:55.098Z,14.35
2017-04-04T12:08:17.235Z,14.43
2017-04-04T12:09:39.062Z,14.52
2017-04-04T12:11:00.983Z,14.29
2017-04-04T12:12:23.513Z,14.2
2017-04-04T12:13:44.715Z,13.97
2017-04-04T12:15:06.562Z,14.17
2017-04-04T12:16:28.437Z,14.28
2017-04-04T12:17:51.380Z,14.33
2017-04-04T12:19:13.838Z,14.39
2017-04-04T12:20:35.688Z,14.51
2017-04-04T12:21:57.543Z,14.37
2017-04-04T12:23:19.710Z,14.4
2017-04-04T12:24:41.935Z,14.52
2017-04-04T12:26:04.557Z,14.62
2017-04-04T12:27:26.822Z,14.55
2017-04-04T12:28:49.029Z,14.4
2017-04-04T12:30:10.905Z,14.35
2017-04-04T12:31:33.073Z,14.4
2017-04-04T12:32:54.912Z,14.47
2017-04-04T12:34:17.416Z,14.29
2017-04-04T12:35:39.877Z,14.51
2017-04-04T12:37:01.827Z,14.69
2017-04-04T12:38:24.070Z,14.8
2017-04-04T12:39:46.646Z,14.86
2017-04-04T12:41:08.794Z,14.92
2017-04-04T12:42:30.330Z,14.7
2017-04-04T12:43:52.801Z,14.55
2017-04-04T12:45:15.012Z,14.36
2017-04-04T12:46:37.274Z,14.51
2017-04-04T12:47:58.771Z,14.65
2017-04-04T12:49:20.279Z,14.81
2017-04-04T12:50:42.801Z,14.91
2017-04-04T12:52:05.265Z,14.88
2017-04-04T12:53:27.105Z,14.72
2017-04-04T12:54:49.577Z,14.84
2017-04-04T12:56:12.084Z,14.96
2017-04-04T12:57:33.930Z,14.94
2017-04-04T12:58:55.786Z,14.81
2017-04-04T13:00:17.951Z,14.68
2017-04-04T13:01:40.830Z,14.62
2017-04-04T13:03:02.333Z,14.69
2017-04-04T13:04:24.314Z,14.65
2017-04-04T13:05:46.514Z,14.7
2017-04-04T13:07:09.018Z,14.69
2017-04-04T13:08:31.490Z,14.72
2017-04-04T13:09:53.641Z,14.75
2017-04-04T13:11:15.506Z,14.73
2017-04-04T13:12:39.130Z,14.5
2017-04-04T13:14:00.980Z,14.39
2017-04-04T13:15:23.142Z,14.35
2017-04-04T13:16:45.307Z,14.22
2017-04-04T13:18:08.125Z,14.32
2017-04-04T13:19:30.372Z,14.17
2017-04-04T13:20:52.606Z,14.12
2017-04-04T13:22:14.819Z,14.04
2017-04-04T13:23:36.963Z,14.15
2017-04-04T13:24:59.121Z,14.27
2017-04-04T13:26:20.984Z,14.32
2017-04-04T13:27:43.358Z,14.28
2017-04-04T13:29:05.548Z,14.35
2017-04-04T13:30:28.025Z,14.57
2017-04-04T13:31:49.891Z,14.62
2017-04-04T13:33:11.850Z,14.57
2017-04-04T13:34:33.417Z,14.35
2017-04-04T13:35:55.562Z,14.35
2017-04-04T13:37:17.745Z,14.33
2017-04-04T13:38:40.207Z,14.33
2017-04-04T13:40:02.746Z,14.33
2017-04-04T13:41:24.752Z,14.36
2017-04-04T13:42:47.347Z,14.37
2017-04-04T13:44:09.609Z,14.43
2017-04-04T13:45:32.394Z,14.36
2017-04-04T13:46:54.334Z,14.37
2017-04-04T13:48:16.153Z,14.29
2017-04-04T13:49:38.616Z,14.42
2017-04-04T13:51:01.385Z,14.47
2017-04-04T13:52:23.231Z,14.54
2017-04-04T13:53:45.126Z,14.57
2017-04-04T13:55:06.966Z,14.39
2017-04-04T13:56:29.884Z,14.36
2017-04-04T13:57:52.030Z,14.36
2017-04-04T13:59:14.504Z,14.37
2017-04-04T14:00:36.344Z,14.55
2017-04-04T14:01:59.165Z,14.65
2017-04-04T14:03:21.357Z,14.62
2017-04-04T14:04:43.825Z,14.62
2017-04-04T14:06:05.341Z,14.65
2017-04-04T14:07:28.426Z,14.73
2017-04-04T14:08:50.379Z,14.73
2017-04-04T14:10:12.440Z,14.7
2017-04-04T14:11:34.596Z,14.91
2017-04-04T14:12:56.773Z,14.92
2017-04-04T14:14:18.647Z,14.98
2017-04-04T14:15:40.846Z,14.99
2017-04-04T14:17:02.693Z,15.07
2017-04-04T14:18:25.222Z,15.09
2017-04-04T14:19:47.084Z,15.14
2017-04-04T14:21:09.235Z,15.21
2017-04-04T14:22:31.060Z,15.01
2017-04-04T14:23:53.547Z,14.95
2017-04-04T14:25:15.682Z,14.86
2017-04-04T14:26:37.517Z,14.72
2017-04-04T14:28:00.055Z,14.51
2017-04-04T14:29:22.854Z,14.36
2017-04-04T14:30:44.795Z,14.33
2017-04-04T14:32:06.347Z,14.22
2017-04-04T14:33:28.963Z,14.21
2017-04-04T14:34:51.462Z,14.24
2017-04-04T14:36:13.038Z,14.25
2017-04-04T14:37:35.495Z,14.28
2017-04-04T14:38:57.406Z,14.37
2017-04-04T14:40:21.385Z,14.29
2017-04-04T14:41:43.785Z,14.32
2017-04-04T14:43:05.621Z,14.29
2017-04-04T14:44:27.574Z,14.36
2017-04-04T14:45:50.074Z,14.25
2017-04-04T14:47:12.636Z,14.37
2017-04-04T14:48:34.802Z,14.45
2017-04-04T14:49:56.947Z,14.45
2017-04-04T14:51:19.145Z,14.42
2017-04-04T14:52:41.328Z,14.35
2017-04-04T14:54:03.815Z,14.28
2017-04-04T14:55:25.665Z,14.29
2017-04-04T14:56:48.146Z,14.22
2017-04-04T14:58:10.017Z,14.25
2017-04-04T14:59:32.303Z,14.21
2017-04-04T15:00:54.451Z,14.2
2017-04-04T15:02:17.225Z,14.24
2017-04-04T15:03:39.707Z,14.2
2017-04-04T15:05:01.875Z,14.24
2017-04-04T15:06:24.045Z,14.22
2017-04-04T15:07:46.555Z,14.22
2017-04-04T15:09:08.125Z,14.27
2017-04-04T15:10:30.293Z,14.42
2017-04-04T15:11:52.134Z,14.47
2017-04-04T15:13:14.919Z,14.51
2017-04-04T15:14:37.125Z,14.51
2017-04-04T15:15:59.293Z,14.62
2017-04-04T15:17:21.138Z,14.68
2017-04-04T15:18:43.710Z,14.65
2017-04-04T15:20:05.277Z,14.77
2017-04-04T15:21:27.820Z,14.81
2017-04-04T15:22:50.313Z,14.83
2017-04-04T15:24:12.807Z,14.84
2017-04-04T15:25:34.129Z,14.88
2017-04-04T15:26:55.668Z,14.95
2017-04-04T15:28:17.865Z,14.91
2017-04-04T15:29:40.359Z,14.83
2017-04-04T15:31:02.210Z,15.02
2017-04-04T15:32:24.033Z,14.94
2017-04-04T15:33:46.232Z,14.99
2017-04-04T15:35:08.666Z,15.02
2017-04-04T15:36:30.827Z,15.1
2017-04-04T15:37:52.053Z,15.07
2017-04-04T15:39:14.057Z,15.02
2017-04-04T15:40:36.660Z,15.01
2017-04-04T15:41:58.878Z,15.03
2017-04-04T15:43:21.125Z,15.07
2017-04-04T15:44:43.594Z,14.99
2017-04-04T15:46:05.851Z,15.11
2017-04-04T15:47:28.314Z,14.99
2017-04-04T15:48:50.793Z,15.02
2017-04-04T15:50:12.975Z,15.07
2017-04-04T15:51:35.100Z,15.16
2017-04-04T15:52:57.304Z,15.21
2017-04-04T15:54:19.546Z,15.2
2017-04-04T15:55:41.395Z,15.23
2017-04-04T15:57:03.678Z,15.16
2017-04-04T15:58:25.195Z,15.17
2017-04-04T15:59:47.077Z,15.19
2017-04-04T16:01:09.599Z,15.17
2017-04-04T16:02:32.518Z,15.2
2017-04-04T16:03:54.987Z,15.21
2017-04-04T16:05:17.486Z,15.2
2017-04-04T16:06:39.372Z,15.27
2017-04-04T16:08:02.200Z,15.39
2017-04-04T16:09:24.686Z,15.5
2017-04-04T16:10:47.192Z,15.44
2017-04-04T16:12:09.036Z,15.38
2017-04-04T16:13:31.209Z,15.29
2017-04-04T16:14:53.375Z,15.41
2017-04-04T16:16:15.535Z,15.49
2017-04-04T16:17:38.036Z,15.56
2017-04-04T16:18:59.918Z,15.57
2017-04-04T16:20:21.444Z,15.69
2017-04-04T16:21:43.595Z,15.72
2017-04-04T16:23:06.175Z,15.76
2017-04-04T16:24:28.630Z,15.76
2017-04-04T16:25:50.855Z,15.82
2017-04-04T16:27:13.198Z,15.84
2017-04-04T16:28:35.038Z,15.84
2017-04-04T16:29:57.473Z,15.62
2017-04-04T16:31:19.815Z,15.56
2017-04-04T16:32:41.797Z,15.53
2017-04-04T16:34:03.776Z,15.67
2017-04-04T16:35:26.655Z,15.68
2017-04-04T16:36:48.867Z,15.68
2017-04-04T16:38:11.055Z,15.54
2017-04-04T16:39:33.217Z,15.43
2017-04-04T16:40:56.010Z,15.39
2017-04-04T16:42:18.225Z,15.19
2017-04-04T16:43:39.907Z,15.17
2017-04-04T16:45:01.812Z,15.07
2017-04-04T16:46:24.629Z,15.01
2017-04-04T16:47:46.809Z,15.03
2017-04-04T16:49:08.991Z,14.96
2017-04-04T16:50:31.091Z,14.84
2017-04-04T16:51:53.368Z,14.91
2017-04-04T16:53:15.364Z,14.73
2017-04-04T16:54:37.533Z,14.69
2017-04-04T16:55:59.410Z,14.64
2017-04-04T16:57:22.187Z,14.58
2017-04-04T16:58:44.361Z,14.43
2017-04-04T17:00:06.831Z,14.39
2017-04-04T17:01:29.120Z,14.22
2017-04-04T17:02:52.865Z,14.24
2017-04-04T17:04:15.344Z,14.2
2017-04-04T17:05:37.565Z,14.17
2017-04-04T17:07:00.069Z,14.17
2017-04-04T17:08:22.579Z,14.04
2017-04-04T17:09:44.773Z,13.97
2017-04-04T17:11:06.940Z,13.96
2017-04-04T17:12:29.156Z,13.85
2017-04-04T17:13:51.908Z,13.82
2017-04-04T17:15:13.787Z,13.63
2017-04-04T17:16:36.011Z,13.59
2017-04-04T17:17:57.898Z,13.63
2017-04-04T17:19:20.718Z,13.51
2017-04-04T17:20:43.230Z,13.46
2017-04-04T17:22:04.870Z,13.41
2017-04-04T17:23:27.377Z,13.36
2017-04-04T17:24:50.224Z,13.32
2017-04-04T17:26:12.787Z,13.22
2017-04-04T17:27:34.988Z,13.12
2017-04-04T17:28:57.137Z,13.1
2017-04-04T17:30:19.933Z,13
2017-04-04T17:31:42.419Z,13
2017-04-04T17:33:05.009Z,12.89
2017-04-04T17:34:27.305Z,12.87
2017-04-04T17:35:49.788Z,12.71
2017-04-04T17:37:11.628Z,12.68
2017-04-04T17:38:34.136Z,12.62
2017-04-04T17:39:56.629Z,12.54
2017-04-04T17:41:19.436Z,12.49
2017-04-04T17:42:41.618Z,12.53
2017-04-04T17:44:04.138Z,12.54
2017-04-04T17:45:26.328Z,12.5
2017-04-04T17:46:48.898Z,12.46
2017-04-04T17:48:11.042Z,12.42
2017-04-04T17:49:33.526Z,12.39
2017-04-04T17:50:54.726Z,12.34
2017-04-04T17:52:17.269Z,12.31
2017-04-04T17:53:39.489Z,12.28
2017-04-04T17:55:01.338Z,12.14